sensor_id;sensor_type;location;lat;lon;timestamp;P1;durP1;ratioP1;P2;durP2;ratioP2
54511;SDS011;40419;47.438;19.026;2024-03-22T00:00:55;14.23;;;5.82;;
54511;SDS011;40419;47.438;19.026;2024-03-22T00:03:21;13.35;;;7.03;;
54511;SDS011;40419;47.438;19.026;2024-03-22T00:05:47;17.70;;;7.53;;
54511;SDS011;40419;47.438;19.026;2024-03-22T00:08:12;27.35;;;6.13;;
54511;SDS011;40419;47.438;19.026;2024-03-22T00:10:38;13.85;;;5.85;;
54511;SDS011;40419;47.438;19.026;2024-03-22T00:13:03;12.82;;;6.30;;
54511;SDS011;40419;47.438;19.026;2024-03-22T00:15:31;13.02;;;5.35;;
54511;SDS011;40419;47.438;19.026;2024-03-22T00:17:57;16.45;;;6.60;;
54511;SDS011;40419;47.438;19.026;2024-03-22T00:20:24;10.30;;;5.28;;
54511;SDS011;40419;47.438;19.026;2024-03-22T00:22:52;15.57;;;6.10;;
54511;SDS011;40419;47.438;19.026;2024-03-22T00:25:20;13.52;;;5.93;;
54511;SDS011;40419;47.438;19.026;2024-03-22T00:27:45;14.73;;;6.30;;
54511;SDS011;40419;47.438;19.026;2024-03-22T00:30:10;12.27;;;5.65;;
54511;SDS011;40419;47.438;19.026;2024-03-22T00:32:39;11.68;;;6.38;;
54511;SDS011;40419;47.438;19.026;2024-03-22T00:35:04;14.05;;;5.78;;
54511;SDS011;40419;47.438;19.026;2024-03-22T00:37:30;15.90;;;6.35;;
54511;SDS011;40419;47.438;19.026;2024-03-22T00:39:55;9.77;;;5.50;;
54511;SDS011;40419;47.438;19.026;2024-03-22T00:42:23;16.23;;;6.22;;
54511;SDS011;40419;47.438;19.026;2024-03-22T00:44:51;13.65;;;6.78;;
54511;SDS011;40419;47.438;19.026;2024-03-22T00:47:16;13.90;;;7.10;;
54511;SDS011;40419;47.438;19.026;2024-03-22T00:49:44;12.15;;;6.45;;
54511;SDS011;40419;47.438;19.026;2024-03-22T00:52:10;13.35;;;6.20;;
54511;SDS011;40419;47.438;19.026;2024-03-22T00:54:37;18.02;;;5.13;;
54511;SDS011;40419;47.438;19.026;2024-03-22T00:57:06;11.53;;;5.80;;
54511;SDS011;40419;47.438;19.026;2024-03-22T00:59:32;13.98;;;6.15;;
54511;SDS011;40419;47.438;19.026;2024-03-22T01:02:02;10.88;;;5.35;;
54511;SDS011;40419;47.438;19.026;2024-03-22T01:04:28;12.82;;;4.55;;
54511;SDS011;40419;47.438;19.026;2024-03-22T01:06:56;12.50;;;5.32;;
54511;SDS011;40419;47.438;19.026;2024-03-22T01:09:23;14.48;;;5.13;;
54511;SDS011;40419;47.438;19.026;2024-03-22T01:11:49;12.07;;;5.03;;
54511;SDS011;40419;47.438;19.026;2024-03-22T01:14:17;9.05;;;4.35;;
54511;SDS011;40419;47.438;19.026;2024-03-22T01:16:45;13.27;;;4.80;;
54511;SDS011;40419;47.438;19.026;2024-03-22T01:19:10;14.85;;;5.57;;
54511;SDS011;40419;47.438;19.026;2024-03-22T01:21:36;10.43;;;5.78;;
54511;SDS011;40419;47.438;19.026;2024-03-22T01:24:06;14.13;;;5.28;;
54511;SDS011;40419;47.438;19.026;2024-03-22T01:26:31;12.25;;;5.55;;
54511;SDS011;40419;47.438;19.026;2024-03-22T01:28:59;15.40;;;6.03;;
54511;SDS011;40419;47.438;19.026;2024-03-22T01:31:27;13.38;;;6.45;;
54511;SDS011;40419;47.438;19.026;2024-03-22T01:33:54;17.90;;;6.72;;
54511;SDS011;40419;47.438;19.026;2024-03-22T01:36:27;10.73;;;5.78;;
54511;SDS011;40419;47.438;19.026;2024-03-22T01:38:54;9.85;;;5.00;;
54511;SDS011;40419;47.438;19.026;2024-03-22T01:41:20;15.98;;;6.03;;
54511;SDS011;40419;47.438;19.026;2024-03-22T01:43:45;12.30;;;6.00;;
54511;SDS011;40419;47.438;19.026;2024-03-22T01:46:11;12.55;;;5.28;;
54511;SDS011;40419;47.438;19.026;2024-03-22T01:48:41;13.38;;;5.18;;
54511;SDS011;40419;47.438;19.026;2024-03-22T01:51:09;11.60;;;5.40;;
54511;SDS011;40419;47.438;19.026;2024-03-22T01:53:34;14.63;;;5.10;;
54511;SDS011;40419;47.438;19.026;2024-03-22T01:56:00;15.52;;;6.90;;
54511;SDS011;40419;47.438;19.026;2024-03-22T01:58:26;11.57;;;4.55;;
54511;SDS011;40419;47.438;19.026;2024-03-22T02:00:54;10.88;;;5.15;;
54511;SDS011;40419;47.438;19.026;2024-03-22T02:03:22;21.35;;;5.80;;
54511;SDS011;40419;47.438;19.026;2024-03-22T02:05:47;12.95;;;6.28;;
54511;SDS011;40419;47.438;19.026;2024-03-22T02:08:15;15.10;;;6.00;;
54511;SDS011;40419;47.438;19.026;2024-03-22T02:10:40;11.90;;;5.35;;
54511;SDS011;40419;47.438;19.026;2024-03-22T02:13:06;13.15;;;6.55;;
54511;SDS011;40419;47.438;19.026;2024-03-22T02:15:31;14.10;;;5.65;;
54511;SDS011;40419;47.438;19.026;2024-03-22T02:17:56;11.23;;;5.10;;
54511;SDS011;40419;47.438;19.026;2024-03-22T02:20:24;15.15;;;6.18;;
54511;SDS011;40419;47.438;19.026;2024-03-22T02:22:50;14.88;;;5.07;;
54511;SDS011;40419;47.438;19.026;2024-03-22T02:25:17;13.27;;;6.18;;
54511;SDS011;40419;47.438;19.026;2024-03-22T02:27:42;11.23;;;4.90;;
54511;SDS011;40419;47.438;19.026;2024-03-22T02:30:10;12.90;;;5.07;;
54511;SDS011;40419;47.438;19.026;2024-03-22T02:32:40;11.45;;;5.93;;
54511;SDS011;40419;47.438;19.026;2024-03-22T02:35:08;10.73;;;5.43;;
54511;SDS011;40419;47.438;19.026;2024-03-22T02:37:34;14.88;;;6.45;;
54511;SDS011;40419;47.438;19.026;2024-03-22T02:40:02;14.50;;;6.15;;
54511;SDS011;40419;47.438;19.026;2024-03-22T02:42:30;15.50;;;5.95;;
54511;SDS011;40419;47.438;19.026;2024-03-22T02:44:55;15.15;;;5.97;;
54511;SDS011;40419;47.438;19.026;2024-03-22T02:47:25;16.10;;;6.15;;
54511;SDS011;40419;47.438;19.026;2024-03-22T02:49:53;13.43;;;6.57;;
54511;SDS011;40419;47.438;19.026;2024-03-22T02:52:18;14.98;;;5.95;;
54511;SDS011;40419;47.438;19.026;2024-03-22T02:54:46;16.35;;;7.75;;
54511;SDS011;40419;47.438;19.026;2024-03-22T02:57:16;17.33;;;7.38;;
54511;SDS011;40419;47.438;19.026;2024-03-22T02:59:42;11.68;;;6.15;;
54511;SDS011;40419;47.438;19.026;2024-03-22T03:02:09;17.13;;;7.13;;
54511;SDS011;40419;47.438;19.026;2024-03-22T03:04:37;19.55;;;6.60;;
54511;SDS011;40419;47.438;19.026;2024-03-22T03:07:05;10.40;;;5.10;;
54511;SDS011;40419;47.438;19.026;2024-03-22T03:09:30;11.43;;;5.70;;
54511;SDS011;40419;47.438;19.026;2024-03-22T03:11:58;15.25;;;6.13;;
54511;SDS011;40419;47.438;19.026;2024-03-22T03:14:23;15.80;;;5.80;;
54511;SDS011;40419;47.438;19.026;2024-03-22T03:16:51;12.52;;;6.22;;
54511;SDS011;40419;47.438;19.026;2024-03-22T03:19:21;17.50;;;5.82;;
54511;SDS011;40419;47.438;19.026;2024-03-22T03:21:47;12.15;;;6.07;;
54511;SDS011;40419;47.438;19.026;2024-03-22T03:24:12;14.73;;;6.80;;
54511;SDS011;40419;47.438;19.026;2024-03-22T03:26:37;13.15;;;5.45;;
54511;SDS011;40419;47.438;19.026;2024-03-22T03:29:05;10.25;;;5.50;;
54511;SDS011;40419;47.438;19.026;2024-03-22T03:31:33;17.15;;;6.78;;
54511;SDS011;40419;47.438;19.026;2024-03-22T03:34:00;13.20;;;4.85;;
54511;SDS011;40419;47.438;19.026;2024-03-22T03:36:28;13.82;;;6.35;;
54511;SDS011;40419;47.438;19.026;2024-03-22T03:38:56;15.52;;;7.50;;
54511;SDS011;40419;47.438;19.026;2024-03-22T03:41:22;15.38;;;7.07;;
54511;SDS011;40419;47.438;19.026;2024-03-22T03:43:49;12.05;;;6.10;;
54511;SDS011;40419;47.438;19.026;2024-03-22T03:46:15;13.70;;;6.78;;
54511;SDS011;40419;47.438;19.026;2024-03-22T03:48:40;13.13;;;6.90;;
54511;SDS011;40419;47.438;19.026;2024-03-22T03:51:05;22.85;;;7.32;;
54511;SDS011;40419;47.438;19.026;2024-03-22T03:53:33;12.45;;;6.22;;
54511;SDS011;40419;47.438;19.026;2024-03-22T03:55:58;14.63;;;6.80;;
54511;SDS011;40419;47.438;19.026;2024-03-22T03:58:26;13.07;;;6.63;;
54511;SDS011;40419;47.438;19.026;2024-03-22T04:00:52;16.00;;;6.78;;
54511;SDS011;40419;47.438;19.026;2024-03-22T04:03:17;14.88;;;6.53;;
54511;SDS011;40419;47.438;19.026;2024-03-22T04:05:45;11.93;;;6.43;;
54511;SDS011;40419;47.438;19.026;2024-03-22T04:08:13;17.50;;;7.53;;
54511;SDS011;40419;47.438;19.026;2024-03-22T04:10:41;12.43;;;6.47;;
54511;SDS011;40419;47.438;19.026;2024-03-22T04:13:08;14.35;;;7.10;;
54511;SDS011;40419;47.438;19.026;2024-03-22T04:15:34;16.00;;;7.82;;
54511;SDS011;40419;47.438;19.026;2024-03-22T04:18:00;13.00;;;6.43;;
54511;SDS011;40419;47.438;19.026;2024-03-22T04:20:27;14.75;;;7.20;;
54511;SDS011;40419;47.438;19.026;2024-03-22T04:22:53;13.00;;;5.80;;
54511;SDS011;40419;47.438;19.026;2024-03-22T04:25:18;15.15;;;7.15;;
54511;SDS011;40419;47.438;19.026;2024-03-22T04:27:44;14.20;;;7.75;;
54511;SDS011;40419;47.438;19.026;2024-03-22T04:30:09;14.80;;;6.70;;
54511;SDS011;40419;47.438;19.026;2024-03-22T04:32:35;16.30;;;7.43;;
54511;SDS011;40419;47.438;19.026;2024-03-22T04:35:03;16.55;;;6.72;;
54511;SDS011;40419;47.438;19.026;2024-03-22T04:37:31;10.93;;;6.00;;
54511;SDS011;40419;47.438;19.026;2024-03-22T04:39:59;14.13;;;6.78;;
54511;SDS011;40419;47.438;19.026;2024-03-22T04:42:24;14.77;;;6.55;;
54511;SDS011;40419;47.438;19.026;2024-03-22T04:44:54;14.13;;;7.65;;
54511;SDS011;40419;47.438;19.026;2024-03-22T04:47:20;16.25;;;7.35;;
54511;SDS011;40419;47.438;19.026;2024-03-22T04:49:45;16.80;;;7.03;;
54511;SDS011;40419;47.438;19.026;2024-03-22T04:52:11;16.58;;;7.72;;
54511;SDS011;40419;47.438;19.026;2024-03-22T04:54:36;18.13;;;7.70;;
54511;SDS011;40419;47.438;19.026;2024-03-22T04:57:04;14.27;;;6.97;;
54511;SDS011;40419;47.438;19.026;2024-03-22T04:59:34;13.02;;;6.85;;
54511;SDS011;40419;47.438;19.026;2024-03-22T05:02:04;11.02;;;5.70;;
54511;SDS011;40419;47.438;19.026;2024-03-22T05:04:32;11.50;;;6.07;;
54511;SDS011;40419;47.438;19.026;2024-03-22T05:06:57;13.20;;;7.03;;
54511;SDS011;40419;47.438;19.026;2024-03-22T05:09:23;12.77;;;7.18;;
54511;SDS011;40419;47.438;19.026;2024-03-22T05:11:51;19.75;;;7.35;;
54511;SDS011;40419;47.438;19.026;2024-03-22T05:14:21;14.65;;;7.80;;
54511;SDS011;40419;47.438;19.026;2024-03-22T05:16:46;14.15;;;5.50;;
54511;SDS011;40419;47.438;19.026;2024-03-22T05:19:14;17.33;;;6.07;;
54511;SDS011;40419;47.438;19.026;2024-03-22T05:21:42;15.25;;;7.72;;
54511;SDS011;40419;47.438;19.026;2024-03-22T05:24:07;18.90;;;8.32;;
54511;SDS011;40419;47.438;19.026;2024-03-22T05:26:33;16.05;;;6.63;;
54511;SDS011;40419;47.438;19.026;2024-03-22T05:29:04;15.02;;;6.90;;
54511;SDS011;40419;47.438;19.026;2024-03-22T05:31:29;13.95;;;6.32;;
54511;SDS011;40419;47.438;19.026;2024-03-22T05:33:56;12.18;;;6.55;;
54511;SDS011;40419;47.438;19.026;2024-03-22T05:36:21;12.98;;;6.68;;
54511;SDS011;40419;47.438;19.026;2024-03-22T05:38:46;12.45;;;7.90;;
54511;SDS011;40419;47.438;19.026;2024-03-22T05:41:12;14.38;;;7.13;;
54511;SDS011;40419;47.438;19.026;2024-03-22T05:43:40;15.68;;;7.30;;
54511;SDS011;40419;47.438;19.026;2024-03-22T05:46:08;13.93;;;6.57;;
54511;SDS011;40419;47.438;19.026;2024-03-22T05:48:35;17.52;;;7.03;;
54511;SDS011;40419;47.438;19.026;2024-03-22T05:51:06;13.32;;;6.97;;
54511;SDS011;40419;47.438;19.026;2024-03-22T05:53:31;11.80;;;5.88;;
54511;SDS011;40419;47.438;19.026;2024-03-22T05:55:56;14.73;;;7.05;;
54511;SDS011;40419;47.438;19.026;2024-03-22T05:58:22;13.60;;;6.82;;
54511;SDS011;40419;47.438;19.026;2024-03-22T06:00:47;11.02;;;7.32;;
54511;SDS011;40419;47.438;19.026;2024-03-22T06:03:16;13.13;;;6.75;;
54511;SDS011;40419;47.438;19.026;2024-03-22T06:05:41;15.65;;;7.40;;
54511;SDS011;40419;47.438;19.026;2024-03-22T06:08:06;13.07;;;6.40;;
54511;SDS011;40419;47.438;19.026;2024-03-22T06:10:32;17.65;;;7.78;;
54511;SDS011;40419;47.438;19.026;2024-03-22T06:12:58;12.98;;;6.65;;
54511;SDS011;40419;47.438;19.026;2024-03-22T06:15:26;13.38;;;6.60;;
54511;SDS011;40419;47.438;19.026;2024-03-22T06:17:51;16.23;;;7.32;;
54511;SDS011;40419;47.438;19.026;2024-03-22T06:20:18;13.88;;;7.00;;
54511;SDS011;40419;47.438;19.026;2024-03-22T06:22:46;16.60;;;7.70;;
54511;SDS011;40419;47.438;19.026;2024-03-22T06:25:11;14.85;;;6.68;;
54511;SDS011;40419;47.438;19.026;2024-03-22T06:27:42;14.85;;;7.32;;
54511;SDS011;40419;47.438;19.026;2024-03-22T06:30:12;9.45;;;5.63;;
54511;SDS011;40419;47.438;19.026;2024-03-22T06:32:40;14.68;;;7.13;;
54511;SDS011;40419;47.438;19.026;2024-03-22T06:35:05;15.88;;;7.78;;
54511;SDS011;40419;47.438;19.026;2024-03-22T06:37:31;22.15;;;8.68;;
54511;SDS011;40419;47.438;19.026;2024-03-22T06:39:56;13.13;;;7.18;;
54511;SDS011;40419;47.438;19.026;2024-03-22T06:42:23;16.67;;;7.40;;
54511;SDS011;40419;47.438;19.026;2024-03-22T06:44:52;14.32;;;7.53;;
54511;SDS011;40419;47.438;19.026;2024-03-22T06:47:19;15.90;;;7.38;;
54511;SDS011;40419;47.438;19.026;2024-03-22T06:49:48;14.38;;;7.28;;
54511;SDS011;40419;47.438;19.026;2024-03-22T06:52:13;11.45;;;7.03;;
54511;SDS011;40419;47.438;19.026;2024-03-22T06:54:42;10.63;;;5.93;;
54511;SDS011;40419;47.438;19.026;2024-03-22T06:57:10;13.20;;;6.95;;
54511;SDS011;40419;47.438;19.026;2024-03-22T06:59:38;14.90;;;6.78;;
54511;SDS011;40419;47.438;19.026;2024-03-22T07:02:06;17.95;;;7.20;;
54511;SDS011;40419;47.438;19.026;2024-03-22T07:04:31;13.10;;;6.38;;
54511;SDS011;40419;47.438;19.026;2024-03-22T07:06:56;12.50;;;6.85;;
54511;SDS011;40419;47.438;19.026;2024-03-22T07:09:22;14.98;;;7.18;;
54511;SDS011;40419;47.438;19.026;2024-03-22T07:11:52;13.00;;;7.47;;
54511;SDS011;40419;47.438;19.026;2024-03-22T07:14:17;15.90;;;7.63;;
54511;SDS011;40419;47.438;19.026;2024-03-22T07:16:42;15.95;;;7.18;;
54511;SDS011;40419;47.438;19.026;2024-03-22T07:19:12;14.57;;;7.47;;
54511;SDS011;40419;47.438;19.026;2024-03-22T07:21:40;13.90;;;6.82;;
54511;SDS011;40419;47.438;19.026;2024-03-22T07:24:10;18.98;;;7.78;;
54511;SDS011;40419;47.438;19.026;2024-03-22T07:26:35;14.70;;;7.40;;
54511;SDS011;40419;47.438;19.026;2024-03-22T07:29:01;14.25;;;6.50;;
54511;SDS011;40419;47.438;19.026;2024-03-22T07:31:30;12.13;;;6.60;;
54511;SDS011;40419;47.438;19.026;2024-03-22T07:33:56;12.85;;;7.22;;
54511;SDS011;40419;47.438;19.026;2024-03-22T07:36:21;13.38;;;6.65;;
54511;SDS011;40419;47.438;19.026;2024-03-22T07:38:46;12.55;;;6.82;;
54511;SDS011;40419;47.438;19.026;2024-03-22T07:41:16;15.73;;;7.88;;
54511;SDS011;40419;47.438;19.026;2024-03-22T07:43:44;15.07;;;7.13;;
54511;SDS011;40419;47.438;19.026;2024-03-22T07:46:14;14.75;;;6.72;;
54511;SDS011;40419;47.438;19.026;2024-03-22T07:48:40;14.02;;;6.30;;
54511;SDS011;40419;47.438;19.026;2024-03-22T07:51:05;13.50;;;7.50;;
54511;SDS011;40419;47.438;19.026;2024-03-22T07:53:33;18.63;;;7.07;;
54511;SDS011;40419;47.438;19.026;2024-03-22T07:55:58;15.68;;;7.47;;
54511;SDS011;40419;47.438;19.026;2024-03-22T07:58:25;12.55;;;6.63;;
54511;SDS011;40419;47.438;19.026;2024-03-22T08:00:51;12.45;;;6.80;;
54511;SDS011;40419;47.438;19.026;2024-03-22T08:03:16;14.23;;;6.93;;
54511;SDS011;40419;47.438;19.026;2024-03-22T08:05:44;16.70;;;7.18;;
54511;SDS011;40419;47.438;19.026;2024-03-22T08:08:12;13.32;;;6.20;;
54511;SDS011;40419;47.438;19.026;2024-03-22T08:10:37;15.98;;;6.35;;
54511;SDS011;40419;47.438;19.026;2024-03-22T08:13:05;14.93;;;6.78;;
54511;SDS011;40419;47.438;19.026;2024-03-22T08:15:30;13.13;;;6.80;;
54511;SDS011;40419;47.438;19.026;2024-03-22T08:17:58;18.67;;;7.15;;
54511;SDS011;40419;47.438;19.026;2024-03-22T08:20:24;15.95;;;7.00;;
54511;SDS011;40419;47.438;19.026;2024-03-22T08:22:53;12.82;;;6.90;;
54511;SDS011;40419;47.438;19.026;2024-03-22T08:25:18;13.05;;;7.38;;
54511;SDS011;40419;47.438;19.026;2024-03-22T08:27:46;12.43;;;7.10;;
54511;SDS011;40419;47.438;19.026;2024-03-22T08:30:13;13.77;;;7.22;;
54511;SDS011;40419;47.438;19.026;2024-03-22T08:32:41;14.32;;;6.85;;
54511;SDS011;40419;47.438;19.026;2024-03-22T08:35:09;11.45;;;6.20;;
54511;SDS011;40419;47.438;19.026;2024-03-22T08:37:39;10.65;;;6.63;;
54511;SDS011;40419;47.438;19.026;2024-03-22T08:40:07;14.82;;;6.60;;
54511;SDS011;40419;47.438;19.026;2024-03-22T08:42:32;12.00;;;6.85;;
54511;SDS011;40419;47.438;19.026;2024-03-22T08:45:00;12.13;;;7.13;;
54511;SDS011;40419;47.438;19.026;2024-03-22T08:47:32;14.70;;;6.70;;
54511;SDS011;40419;47.438;19.026;2024-03-22T08:49:59;10.60;;;5.82;;
54511;SDS011;40419;47.438;19.026;2024-03-22T08:52:27;13.77;;;6.65;;
54511;SDS011;40419;47.438;19.026;2024-03-22T08:54:55;13.85;;;5.78;;
54511;SDS011;40419;47.438;19.026;2024-03-22T08:57:20;12.95;;;7.13;;
54511;SDS011;40419;47.438;19.026;2024-03-22T08:59:49;16.67;;;6.78;;
54511;SDS011;40419;47.438;19.026;2024-03-22T09:02:15;11.82;;;6.35;;
54511;SDS011;40419;47.438;19.026;2024-03-22T09:04:40;18.02;;;6.72;;
54511;SDS011;40419;47.438;19.026;2024-03-22T09:07:05;11.90;;;6.60;;
54511;SDS011;40419;47.438;19.026;2024-03-22T09:09:31;13.32;;;7.07;;
54511;SDS011;40419;47.438;19.026;2024-03-22T09:11:56;15.98;;;7.05;;
54511;SDS011;40419;47.438;19.026;2024-03-22T09:14:24;16.30;;;7.25;;
54511;SDS011;40419;47.438;19.026;2024-03-22T09:16:49;13.20;;;6.35;;
54511;SDS011;40419;47.438;19.026;2024-03-22T09:19:20;15.60;;;7.68;;
54511;SDS011;40419;47.438;19.026;2024-03-22T09:21:45;11.90;;;6.47;;
54511;SDS011;40419;47.438;19.026;2024-03-22T09:24:13;13.73;;;7.20;;
54511;SDS011;40419;47.438;19.026;2024-03-22T09:26:41;14.55;;;7.72;;
54511;SDS011;40419;47.438;19.026;2024-03-22T09:29:08;12.63;;;6.70;;
54511;SDS011;40419;47.438;19.026;2024-03-22T09:31:34;11.52;;;6.13;;
54511;SDS011;40419;47.438;19.026;2024-03-22T09:34:01;14.20;;;6.50;;
54511;SDS011;40419;47.438;19.026;2024-03-22T09:36:27;11.82;;;6.53;;
54511;SDS011;40419;47.438;19.026;2024-03-22T09:41:24;10.87;;;6.10;;
54511;SDS011;40419;47.438;19.026;2024-03-22T09:43:54;10.40;;;6.40;;
54511;SDS011;40419;47.438;19.026;2024-03-22T09:46:22;11.80;;;6.15;;
54511;SDS011;40419;47.438;19.026;2024-03-22T09:48:50;16.75;;;6.25;;
54511;SDS011;40419;47.438;19.026;2024-03-22T09:51:21;14.20;;;7.28;;
54511;SDS011;40419;47.438;19.026;2024-03-22T09:53:48;12.57;;;6.88;;
54511;SDS011;40419;47.438;19.026;2024-03-22T09:56:16;13.25;;;7.18;;
54511;SDS011;40419;47.438;19.026;2024-03-22T09:58:42;14.50;;;7.97;;
54511;SDS011;40419;47.438;19.026;2024-03-22T10:01:08;13.75;;;7.35;;
54511;SDS011;40419;47.438;19.026;2024-03-22T10:03:34;13.98;;;7.00;;
54511;SDS011;40419;47.438;19.026;2024-03-22T10:06:05;13.18;;;7.00;;
54511;SDS011;40419;47.438;19.026;2024-03-22T10:08:30;9.35;;;6.32;;
54511;SDS011;40419;47.438;19.026;2024-03-22T10:10:56;12.13;;;7.10;;
54511;SDS011;40419;47.438;19.026;2024-03-22T10:13:26;13.20;;;7.15;;
54511;SDS011;40419;47.438;19.026;2024-03-22T10:15:51;15.00;;;7.75;;
54511;SDS011;40419;47.438;19.026;2024-03-22T10:18:17;13.82;;;7.43;;
54511;SDS011;40419;47.438;19.026;2024-03-22T10:20:42;13.90;;;7.43;;
54511;SDS011;40419;47.438;19.026;2024-03-22T10:23:08;13.75;;;6.55;;
54511;SDS011;40419;47.438;19.026;2024-03-22T10:25:38;14.07;;;8.43;;
54511;SDS011;40419;47.438;19.026;2024-03-22T10:28:03;12.98;;;7.47;;
54511;SDS011;40419;47.438;19.026;2024-03-22T10:30:32;14.18;;;7.30;;
54511;SDS011;40419;47.438;19.026;2024-03-22T10:33:00;11.40;;;6.78;;
54511;SDS011;40419;47.438;19.026;2024-03-22T10:35:29;13.52;;;6.47;;
54511;SDS011;40419;47.438;19.026;2024-03-22T10:37:55;10.88;;;6.80;;
54511;SDS011;40419;47.438;19.026;2024-03-22T10:40:20;12.43;;;6.85;;
54511;SDS011;40419;47.438;19.026;2024-03-22T10:42:46;12.63;;;6.68;;
54511;SDS011;40419;47.438;19.026;2024-03-22T10:45:14;10.93;;;6.70;;
54511;SDS011;40419;47.438;19.026;2024-03-22T10:47:39;12.65;;;6.97;;
54511;SDS011;40419;47.438;19.026;2024-03-22T10:50:07;10.88;;;5.82;;
54511;SDS011;40419;47.438;19.026;2024-03-22T10:52:52;11.95;;;5.85;;
54511;SDS011;40419;47.438;19.026;2024-03-22T10:55:25;11.90;;;6.30;;
54511;SDS011;40419;47.438;19.026;2024-03-22T10:57:53;12.10;;;6.22;;
54511;SDS011;40419;47.438;19.026;2024-03-22T11:00:26;12.77;;;6.88;;
54511;SDS011;40419;47.438;19.026;2024-03-22T11:02:53;10.93;;;6.25;;
54511;SDS011;40419;47.438;19.026;2024-03-22T11:05:23;16.00;;;6.18;;
54511;SDS011;40419;47.438;19.026;2024-03-22T11:08:04;10.50;;;5.93;;
54511;SDS011;40419;47.438;19.026;2024-03-22T11:10:35;9.82;;;6.03;;
54511;SDS011;40419;47.438;19.026;2024-03-22T11:13:03;7.40;;;5.00;;
54511;SDS011;40419;47.438;19.026;2024-03-22T11:15:29;8.75;;;5.35;;
54511;SDS011;40419;47.438;19.026;2024-03-22T11:17:55;8.32;;;4.70;;
54511;SDS011;40419;47.438;19.026;2024-03-22T11:20:22;7.93;;;4.35;;
54511;SDS011;40419;47.438;19.026;2024-03-22T11:22:55;8.65;;;5.00;;
54511;SDS011;40419;47.438;19.026;2024-03-22T11:25:21;11.35;;;4.88;;
54511;SDS011;40419;47.438;19.026;2024-03-22T11:27:49;8.07;;;4.75;;
54511;SDS011;40419;47.438;19.026;2024-03-22T11:30:17;8.75;;;4.30;;
54511;SDS011;40419;47.438;19.026;2024-03-22T11:32:45;9.30;;;4.25;;
54511;SDS011;40419;47.438;19.026;2024-03-22T11:35:13;8.02;;;4.20;;
54511;SDS011;40419;47.438;19.026;2024-03-22T11:37:39;6.78;;;3.70;;
54511;SDS011;40419;47.438;19.026;2024-03-22T11:40:04;4.47;;;2.75;;
54511;SDS011;40419;47.438;19.026;2024-03-22T11:42:32;7.28;;;2.63;;
54511;SDS011;40419;47.438;19.026;2024-03-22T11:45:00;6.47;;;3.30;;
54511;SDS011;40419;47.438;19.026;2024-03-22T11:47:29;4.95;;;3.20;;
54511;SDS011;40419;47.438;19.026;2024-03-22T11:49:57;7.35;;;3.58;;
54511;SDS011;40419;47.438;19.026;2024-03-22T11:52:26;5.70;;;3.55;;
54511;SDS011;40419;47.438;19.026;2024-03-22T11:54:52;6.90;;;3.55;;
54511;SDS011;40419;47.438;19.026;2024-03-22T11:57:18;6.30;;;3.50;;
54511;SDS011;40419;47.438;19.026;2024-03-22T11:59:43;7.15;;;2.85;;
54511;SDS011;40419;47.438;19.026;2024-03-22T12:02:09;6.32;;;3.50;;
54511;SDS011;40419;47.438;19.026;2024-03-22T12:04:56;6.55;;;3.53;;
54511;SDS011;40419;47.438;19.026;2024-03-22T12:07:24;7.72;;;4.10;;
54511;SDS011;40419;47.438;19.026;2024-03-22T12:09:51;8.63;;;3.40;;
54511;SDS011;40419;47.438;19.026;2024-03-22T12:12:17;7.38;;;3.85;;
54511;SDS011;40419;47.438;19.026;2024-03-22T12:14:46;7.68;;;4.65;;
54511;SDS011;40419;47.438;19.026;2024-03-22T12:17:11;7.47;;;4.72;;
54511;SDS011;40419;47.438;19.026;2024-03-22T12:19:39;10.27;;;4.95;;
54511;SDS011;40419;47.438;19.026;2024-03-22T12:22:05;7.80;;;4.55;;
54511;SDS011;40419;47.438;19.026;2024-03-22T12:24:32;7.72;;;4.78;;
54511;SDS011;40419;47.438;19.026;2024-03-22T12:26:58;7.53;;;4.20;;
54511;SDS011;40419;47.438;19.026;2024-03-22T12:29:24;7.97;;;4.60;;
54511;SDS011;40419;47.438;19.026;2024-03-22T12:31:49;9.40;;;5.05;;
54511;SDS011;40419;47.438;19.026;2024-03-22T12:34:15;8.02;;;4.88;;
54511;SDS011;40419;47.438;19.026;2024-03-22T12:36:43;9.77;;;5.30;;
54511;SDS011;40419;47.438;19.026;2024-03-22T12:39:09;8.52;;;4.88;;
54511;SDS011;40419;47.438;19.026;2024-03-22T12:41:37;8.75;;;4.53;;
54511;SDS011;40419;47.438;19.026;2024-03-22T12:44:04;8.82;;;4.93;;
54511;SDS011;40419;47.438;19.026;2024-03-22T12:46:32;9.52;;;4.60;;
54511;SDS011;40419;47.438;19.026;2024-03-22T12:49:00;7.43;;;4.32;;
54511;SDS011;40419;47.438;19.026;2024-03-22T12:51:25;8.25;;;4.63;;
54511;SDS011;40419;47.438;19.026;2024-03-22T12:53:53;7.95;;;3.92;;
54511;SDS011;40419;47.438;19.026;2024-03-22T12:56:18;7.22;;;4.25;;
54511;SDS011;40419;47.438;19.026;2024-03-22T12:58:44;11.07;;;4.15;;
54511;SDS011;40419;47.438;19.026;2024-03-22T13:01:12;10.45;;;4.75;;
54511;SDS011;40419;47.438;19.026;2024-03-22T13:03:37;7.90;;;3.90;;
54511;SDS011;40419;47.438;19.026;2024-03-22T13:06:03;9.02;;;4.82;;
54511;SDS011;40419;47.438;19.026;2024-03-22T13:08:30;10.45;;;5.13;;
54511;SDS011;40419;47.438;19.026;2024-03-22T13:10:58;9.90;;;4.88;;
54511;SDS011;40419;47.438;19.026;2024-03-22T13:13:24;8.88;;;4.28;;
54511;SDS011;40419;47.438;19.026;2024-03-22T13:15:50;7.88;;;4.45;;
54511;SDS011;40419;47.438;19.026;2024-03-22T13:18:15;8.20;;;4.57;;
54511;SDS011;40419;47.438;19.026;2024-03-22T13:20:46;9.13;;;4.78;;
54511;SDS011;40419;47.438;19.026;2024-03-22T13:23:14;8.70;;;5.05;;
54511;SDS011;40419;47.438;19.026;2024-03-22T13:25:41;9.85;;;4.72;;
54511;SDS011;40419;47.438;19.026;2024-03-22T13:28:07;9.70;;;4.90;;
54511;SDS011;40419;47.438;19.026;2024-03-22T13:30:32;9.55;;;4.57;;
54511;SDS011;40419;47.438;19.026;2024-03-22T13:32:58;9.07;;;4.78;;
54511;SDS011;40419;47.438;19.026;2024-03-22T13:35:26;9.65;;;4.38;;
54511;SDS011;40419;47.438;19.026;2024-03-22T13:37:54;10.43;;;4.78;;
54511;SDS011;40419;47.438;19.026;2024-03-22T13:40:20;7.70;;;4.30;;
54511;SDS011;40419;47.438;19.026;2024-03-22T13:42:45;8.52;;;4.90;;
54511;SDS011;40419;47.438;19.026;2024-03-22T13:45:11;7.93;;;5.20;;
54511;SDS011;40419;47.438;19.026;2024-03-22T13:47:41;8.15;;;4.57;;
54511;SDS011;40419;47.438;19.026;2024-03-22T13:50:09;8.27;;;4.70;;
54511;SDS011;40419;47.438;19.026;2024-03-22T13:52:36;11.50;;;4.97;;
54511;SDS011;40419;47.438;19.026;2024-03-22T13:55:02;9.70;;;4.55;;
54511;SDS011;40419;47.438;19.026;2024-03-22T13:57:27;10.05;;;4.60;;
54511;SDS011;40419;47.438;19.026;2024-03-22T13:59:53;7.47;;;3.97;;
54511;SDS011;40419;47.438;19.026;2024-03-22T14:02:18;8.98;;;4.55;;
54511;SDS011;40419;47.438;19.026;2024-03-22T14:04:49;8.45;;;4.40;;
54511;SDS011;40419;47.438;19.026;2024-03-22T14:07:14;8.73;;;4.50;;
54511;SDS011;40419;47.438;19.026;2024-03-22T14:09:40;8.48;;;3.90;;
54511;SDS011;40419;47.438;19.026;2024-03-22T14:12:06;9.57;;;4.45;;
54511;SDS011;40419;47.438;19.026;2024-03-22T14:14:34;5.80;;;3.38;;
54511;SDS011;40419;47.438;19.026;2024-03-22T14:16:59;7.70;;;3.65;;
54511;SDS011;40419;47.438;19.026;2024-03-22T14:19:24;6.28;;;4.05;;
54511;SDS011;40419;47.438;19.026;2024-03-22T14:21:52;7.13;;;3.88;;
54511;SDS011;40419;47.438;19.026;2024-03-22T14:24:21;5.20;;;3.10;;